Time;durP1;ratioP1;P1;durP2;ratioP2;P2;SDS_P1;SDS_P2;PMS_P1;PMS_P2;Temp;Humidity;BMP_temperature;BMP_pressure;BME280_temperature;BME280_humidity;BME280_pressure;Samples;Min_cycle;Max_cycle;Signal;HPM_P1;HPM_P2
2022/01/07 00:02:06;;;;;;;15.80;4.68;;;3.00;99.90;;;;;;5033466;28;20117;-62
2022/01/07 00:04:35;;;;;;;11.85;5.18;;;3.10;99.90;;;;;;5033486;28;20045;-62
2022/01/07 00:07:04;;;;;;;12.43;4.72;;;4.20;99.90;;;;;;5035782;28;20037;-62
2022/01/07 00:09:30;;;;;;;12.30;5.30;;;3.10;99.90;;;;;;5036166;28;20057;-61
2022/01/07 00:11:56;;;;;;;12.20;5.35;;;3.10;99.90;;;;;;5036379;28;20061;-62
2022/01/07 00:14:21;;;;;;;12.77;4.75;;;3.10;99.90;;;;;;5036401;28;20025;-62
2022/01/07 00:16:48;;;;;;;9.35;4.70;;;3.00;99.90;;;;;;5037035;28;20443;-62
2022/01/07 00:19:15;;;;;;;13.57;5.63;;;3.10;99.90;;;;;;5036052;28;20091;-62
2022/01/07 00:21:41;;;;;;;12.45;4.53;;;3.10;99.90;;;;;;5036946;28;20045;-62
2022/01/07 00:24:07;;;;;;;13.52;4.07;;;3.10;99.90;;;;;;5037000;28;20072;-62
2022/01/07 00:26:34;;;;;;;14.10;5.18;;;3.30;99.90;;;;;;5036947;28;20017;-62
2022/01/07 00:29:00;;;;;;;8.90;4.40;;;3.20;99.90;;;;;;5037007;28;20025;-62
2022/01/07 00:31:26;;;;;;;16.50;4.43;;;3.20;99.90;;;;;;5036874;28;20097;-62
2022/01/07 00:33:54;;;;;;;14.65;4.70;;;3.10;99.90;;;;;;5037621;28;20342;-62
2022/01/07 00:36:22;;;;;;;10.90;4.90;;;3.20;99.90;;;;;;5036793;28;20152;-62
2022/01/07 00:38:48;;;;;;;13.20;4.10;;;3.10;99.90;;;;;;5036828;28;20058;-62
2022/01/07 00:41:16;;;;;;;12.73;4.47;;;3.20;99.90;;;;;;5036674;28;20064;-62
2022/01/07 00:43:44;;;;;;;12.20;4.97;;;3.30;99.90;;;;;;5036674;28;20026;-62
2022/01/07 00:46:09;;;;;;;14.70;5.22;;;3.20;99.90;;;;;;5036533;28;20028;-62
2022/01/07 00:48:40;;;;;;;11.95;5.07;;;3.10;99.90;;;;;;5036542;28;20021;-62
2022/01/07 00:51:05;;;;;;;17.63;3.85;;;3.20;99.90;;;;;;5036594;28;20029;-62
2022/01/07 00:53:31;;;;;;;10.23;5.13;;;3.20;99.90;;;;;;5036376;28;20040;-62
2022/01/07 00:55:56;;;;;;;11.75;4.90;;;3.10;99.90;;;;;;5036449;28;20114;-62
2022/01/07 00:58:22;;;;;;;8.68;3.65;;;3.20;99.90;;;;;;5036226;28;20022;-62
2022/01/07 01:00:48;;;;;;;11.27;4.65;;;3.20;99.90;;;;;;5035012;28;20367;-62
2022/01/07 01:03:18;;;;;;;12.15;4.05;;;3.20;99.90;;;;;;5035263;28;20025;-62
2022/01/07 01:05:45;;;;;;;10.87;5.23;;;3.20;99.90;;;;;;5036344;28;20026;-62
2022/01/07 01:08:11;;;;;;;11.23;4.68;;;3.20;99.90;;;;;;5036188;28;20013;-62
2022/01/07 01:10:37;;;;;;;14.15;5.30;;;3.20;99.90;;;;;;5035206;28;20021;-62
2022/01/07 01:13:05;;;;;;;13.95;5.22;;;3.20;99.90;;;;;;5036082;28;20025;-62
2022/01/07 01:15:31;;;;;;;11.93;5.53;;;3.20;99.90;;;;;;5036013;28;20017;-62
2022/01/07 01:17:58;;;;;;;12.95;5.53;;;3.20;99.90;;;;;;5035690;28;20036;-62
2022/01/07 01:20:24;;;;;;;12.68;5.32;;;3.10;99.90;;;;;;5035259;28;20446;-62
2022/01/07 01:22:51;;;;;;;18.92;5.72;;;3.40;99.90;;;;;;5035871;28;20026;-62
2022/01/07 01:25:17;;;;;;;15.27;7.18;;;3.20;99.90;;;;;;5035891;28;20033;-62
2022/01/07 01:27:45;;;;;;;9.65;5.03;;;3.20;99.90;;;;;;5035834;28;20108;-62
2022/01/07 01:30:18;;;;;;;13.40;5.53;;;3.20;99.90;;;;;;5035840;28;20021;-62
2022/01/07 01:32:46;;;;;;;14.30;5.50;;;3.10;99.90;;;;;;5035841;28;20026;-62
2022/01/07 01:35:12;;;;;;;11.43;5.70;;;3.30;99.90;;;;;;5035623;28;20056;-61
2022/01/07 01:37:41;;;;;;;14.88;5.53;;;3.20;99.90;;;;;;5035627;28;20030;-63
2022/01/07 01:41:01;;;;;;;8.15;4.47;;;3.20;99.90;;;;;;5174120;27;20758;-62
2022/01/07 01:43:27;;;;;;;13.80;4.78;;;3.30;99.90;;;;;;5173984;27;20019;-62
2022/01/07 01:45:53;;;;;;;9.13;4.30;;;3.30;99.90;;;;;;5173995;27;20022;-61
2022/01/07 01:48:21;;;;;;;10.50;4.78;;;3.30;99.90;;;;;;5173881;27;20365;-61
2022/01/07 01:50:47;;;;;;;9.00;5.00;;;3.40;99.90;;;;;;5173905;27;20022;-61
2022/01/07 01:53:14;;;;;;;9.23;4.43;;;3.30;99.90;;;;;;5173796;27;20093;-61
2022/01/07 01:55:42;;;;;;;9.10;4.45;;;3.40;99.90;;;;;;5173940;27;20018;-62
2022/01/07 01:58:11;;;;;;;10.10;4.47;;;3.40;99.90;;;;;;5155437;27;20343;-62
2022/01/07 02:00:39;;;;;;;11.43;4.72;;;3.40;99.90;;;;;;5173571;27;20080;-62
2022/01/07 02:03:07;;;;;;;9.07;4.53;;;3.50;99.90;;;;;;5173810;27;20086;-62
2022/01/07 02:05:33;;;;;;;9.85;4.05;;;3.50;99.90;;;;;;5173423;27;20034;-62
2022/01/07 02:07:59;;;;;;;11.07;3.92;;;3.50;99.90;;;;;;5173724;27;20027;-62
2022/01/07 02:10:26;;;;;;;8.98;4.88;;;3.50;99.90;;;;;;5173316;27;20027;-62
2022/01/07 02:12:51;;;;;;;15.82;6.20;;;3.60;99.90;;;;;;5173676;27;20026;-62
2022/01/07 02:15:22;;;;;;;11.43;4.53;;;3.80;99.90;;;;;;5173397;27;20097;-62
2022/01/07 02:17:49;;;;;;;7.88;4.40;;;3.70;99.90;;;;;;5173527;27;20513;-62
2022/01/07 02:20:21;;;;;;;10.23;4.75;;;3.60;99.90;;;;;;5173164;27;20041;-62
2022/01/07 02:22:49;;;;;;;7.70;4.05;;;3.60;99.90;;;;;;5155071;27;20018;-64
2022/01/07 02:25:17;;;;;;;16.63;5.85;;;3.60;99.90;;;;;;5173313;27;20018;-61
2022/01/07 02:27:46;;;;;;;10.25;4.32;;;3.60;99.90;;;;;;5173428;27;20022;-62
2022/01/07 02:30:18;;;;;;;9.63;4.05;;;3.60;99.90;;;;;;5154740;27;20030;-63
2022/01/07 02:32:47;;;;;;;10.40;4.68;;;3.60;99.90;;;;;;5173126;27;20098;-62
2022/01/07 02:35:17;;;;;;;14.50;4.90;;;3.60;99.90;;;;;;5154614;27;20087;-62
2022/01/07 02:37:45;;;;;;;8.93;4.15;;;3.60;99.90;;;;;;5172975;27;20026;-62
2022/01/07 02:40:12;;;;;;;10.52;4.97;;;3.60;99.90;;;;;;5172519;27;20362;-62
2022/01/07 02:42:38;;;;;;;6.57;3.92;;;3.60;99.90;;;;;;5172797;27;20106;-62
2022/01/07 02:45:08;;;;;;;12.07;4.10;;;4.10;99.90;;;;;;5172816;27;20022;-63
2022/01/07 02:48:02;;;;;;;12.68;4.60;;;3.60;99.90;;;;;;5172711;27;20015;-62
2022/01/07 02:50:36;;;;;;;7.43;3.63;;;3.60;99.90;;;;;;5169396;27;20019;-62
2022/01/07 02:53:05;;;;;;;10.13;4.05;;;3.60;99.90;;;;;;5158911;27;20114;-62
2022/01/07 02:55:31;;;;;;;9.55;3.40;;;3.60;99.90;;;;;;5159242;27;20080;-62
2022/01/07 02:57:59;;;;;;;7.57;4.30;;;3.60;99.90;;;;;;5140456;27;20075;-62
2022/01/07 03:00:25;;;;;;;6.57;4.18;;;3.60;99.90;;;;;;5158624;27;20023;-62
2022/01/07 03:02:52;;;;;;;7.35;3.55;;;3.60;99.90;;;;;;5158677;27;20037;-62
2022/01/07 03:05:19;;;;;;;11.00;4.35;;;3.60;99.90;;;;;;5140781;27;20041;-62
2022/01/07 03:07:47;;;;;;;9.18;3.72;;;3.60;99.90;;;;;;5140249;27;20022;-62
2022/01/07 03:10:14;;;;;;;7.78;3.58;;;3.70;99.90;;;;;;5158411;27;20509;-62
2022/01/07 03:12:42;;;;;;;9.32;3.85;;;3.40;99.90;;;;;;5158316;27;20030;-62
2022/01/07 03:15:12;;;;;;;11.15;3.72;;;4.00;99.90;;;;;;5158464;27;20018;-62
2022/01/07 03:17:39;;;;;;;9.35;4.22;;;3.40;99.90;;;;;;5158136;27;20030;-62
2022/01/07 03:20:07;;;;;;;13.68;3.70;;;3.40;99.90;;;;;;5158096;27;20162;-61
2022/01/07 03:22:33;;;;;;;8.38;4.43;;;3.30;99.90;;;;;;5158046;27;20027;-62
2022/01/07 03:24:59;;;;;;;6.15;3.70;;;3.30;99.90;;;;;;5139840;27;20019;-62
2022/01/07 03:27:24;;;;;;;11.07;3.83;;;3.30;99.90;;;;;;5140041;27;20098;-62
2022/01/07 03:29:50;;;;;;;10.88;3.95;;;3.70;99.90;;;;;;5158024;27;20055;-62
2022/01/07 03:32:18;;;;;;;7.43;4.53;;;3.30;99.90;;;;;;5139671;27;20022;-62
2022/01/07 03:34:43;;;;;;;7.07;3.38;;;3.40;99.90;;;;;;5158053;27;20027;-62
2022/01/07 03:37:11;;;;;;;6.05;3.28;;;3.30;99.90;;;;;;5157995;27;20034;-61
2022/01/07 03:39:39;;;;;;;7.80;3.78;;;3.30;99.90;;;;;;5157688;27;20073;-61
